Time;durP1;ratioP1;P1;durP2;ratioP2;P2;SDS_P1;SDS_P2;PMS_P1;PMS_P2;Temp;Humidity;BMP_temperature;BMP_pressure;BME280_temperature;BME280_humidity;BME280_pressure;Samples;Min_cycle;Max_cycle;Signal;HPM_P1;HPM_P2
2023/07/11 00:00:52;;;;;;;7.57;4.00;;;;;;;;;;5068657;28;20073;-64
2023/07/11 00:03:17;;;;;;;8.23;4.43;;;;;;;;;;5057150;28;20108;-61
2023/07/11 00:05:42;;;;;;;6.67;3.87;;;;;;;;;;5069161;28;20016;-62
2023/07/11 00:08:07;;;;;;;6.47;3.72;;;;;;;;;;5053349;28;20024;-62
2023/07/11 00:10:32;;;;;;;7.32;4.20;;;;;;;;;;5067055;28;20029;-63
2023/07/11 00:12:58;;;;;;;7.43;4.20;;;;;;;;;;5064261;28;20461;-64
2023/07/11 00:15:23;;;;;;;7.60;4.03;;;;;;;;;;5066565;28;20024;-64
2023/07/11 00:17:48;;;;;;;7.07;4.00;;;;;;;;;;5068422;28;20111;-62
2023/07/11 00:20:14;;;;;;;9.80;4.03;;;;;;;;;;5062754;28;20028;-63
2023/07/11 00:22:42;;;;;;;7.60;3.92;;;;;;;;;;5062370;28;20558;-62
2023/07/11 00:25:08;;;;;;;8.00;4.18;;;;;;;;;;5068402;28;20032;-63
2023/07/11 00:27:33;;;;;;;9.05;4.20;;;;;;;;;;5068232;28;20029;-63
2023/07/11 00:29:58;;;;;;;7.45;3.90;;;;;;;;;;5060897;28;20036;-63
2023/07/11 00:32:24;;;;;;;6.50;3.70;;;;;;;;;;5053392;28;20020;-61
2023/07/11 00:34:49;;;;;;;6.53;3.90;;;;;;;;;;5050680;28;20473;-62
2023/07/11 00:37:14;;;;;;;6.47;3.90;;;;;;;;;;5064294;28;20040;-61
2023/07/11 00:39:40;;;;;;;7.30;3.97;;;;;;;;;;5071578;28;20021;-62
2023/07/11 00:42:06;;;;;;;7.57;3.87;;;;;;;;;;5074901;28;20025;-64
2023/07/11 00:44:53;;;;;;;7.97;4.53;;;;;;;;;;5073715;28;20028;-63
2023/07/11 00:47:18;;;;;;;7.88;4.30;;;;;;;;;;5074020;28;20032;-62
2023/07/11 00:49:44;;;;;;;8.15;4.35;;;;;;;;;;5073505;28;20050;-64
2023/07/11 00:52:10;;;;;;;6.63;4.10;;;;;;;;;;5072921;28;20028;-64
2023/07/11 00:54:36;;;;;;;7.20;4.30;;;;;;;;;;5072521;28;20028;-64
2023/07/11 00:57:04;;;;;;;7.25;4.30;;;;;;;;;;5073455;28;20020;-64
2023/07/11 00:59:29;;;;;;;7.82;4.10;;;;;;;;;;5073255;28;20507;-64
2023/07/11 01:02:06;;;;;;;7.75;4.60;;;;;;;;;;5073557;28;20027;-65
2023/07/11 01:04:31;;;;;;;6.97;4.32;;;;;;;;;;5073033;28;20108;-64
2023/07/11 01:06:57;;;;;;;8.65;4.78;;;;;;;;;;5073376;28;20459;-64
2023/07/11 01:09:22;;;;;;;6.78;4.22;;;;;;;;;;5070361;28;20100;-64
2023/07/11 01:11:53;;;;;;;7.77;4.37;;;;;;;;;;5073029;28;20101;-64
2023/07/11 01:14:18;;;;;;;7.93;4.68;;;;;;;;;;5072315;28;20542;-66
2023/07/11 01:16:44;;;;;;;8.10;4.73;;;;;;;;;;5073474;28;20032;-65
2023/07/11 01:19:09;;;;;;;7.20;4.50;;;;;;;;;;5073231;28;20020;-64
2023/07/11 01:21:34;;;;;;;6.97;4.30;;;;;;;;;;5072919;28;20103;-64
2023/07/11 01:23:59;;;;;;;7.90;4.40;;;;;;;;;;5072478;28;20096;-64
2023/07/11 01:26:24;;;;;;;7.70;4.80;;;;;;;;;;5069484;28;20028;-63
2023/07/11 01:28:49;;;;;;;6.78;4.32;;;;;;;;;;5073358;28;20506;-62
2023/07/11 01:31:15;;;;;;;7.88;4.50;;;;;;;;;;5073418;28;20023;-64
2023/07/11 01:33:40;;;;;;;9.57;4.40;;;;;;;;;;5072182;28;20029;-64
2023/07/11 01:36:05;;;;;;;7.57;4.20;;;;;;;;;;5072641;28;20034;-63
2023/07/11 01:38:30;;;;;;;7.32;4.50;;;;;;;;;;5065428;28;20028;-63
2023/07/11 01:40:56;;;;;;;7.43;4.17;;;;;;;;;;5072956;28;20388;-63
2023/07/11 01:43:21;;;;;;;7.10;4.28;;;;;;;;;;5061576;28;20021;-61
2023/07/11 01:45:46;;;;;;;8.10;4.80;;;;;;;;;;5072560;28;20085;-63
2023/07/11 01:48:11;;;;;;;8.43;4.80;;;;;;;;;;5072706;28;20032;-62
2023/07/11 01:50:37;;;;;;;8.32;5.13;;;;;;;;;;5072549;28;20083;-63
2023/07/11 01:53:02;;;;;;;7.10;4.50;;;;;;;;;;5067628;28;20495;-63
2023/07/11 01:55:27;;;;;;;8.43;4.68;;;;;;;;;;5072358;28;20024;-63
2023/07/11 01:57:52;;;;;;;8.67;4.97;;;;;;;;;;5072824;28;20041;-63
2023/07/11 02:00:18;;;;;;;7.73;4.80;;;;;;;;;;5072570;28;20476;-64
2023/07/11 02:02:43;;;;;;;11.00;4.85;;;;;;;;;;5062183;28;20025;-61
2023/07/11 02:05:08;;;;;;;9.23;4.88;;;;;;;;;;5052402;28;20096;-64
2023/07/11 02:07:33;;;;;;;9.93;5.50;;;;;;;;;;5064647;28;20050;-62
2023/07/11 02:09:58;;;;;;;8.00;5.13;;;;;;;;;;5071557;28;20015;-64
2023/07/11 02:12:24;;;;;;;9.93;5.18;;;;;;;;;;5071425;28;20054;-64
2023/07/11 02:14:49;;;;;;;10.02;5.43;;;;;;;;;;5068884;28;20025;-63
2023/07/11 02:17:17;;;;;;;7.45;4.47;;;;;;;;;;5070063;28;20081;-62
2023/07/11 02:19:44;;;;;;;8.65;5.18;;;;;;;;;;5071929;28;20539;-63
2023/07/11 02:22:09;;;;;;;8.10;4.80;;;;;;;;;;5068943;28;20107;-64
2023/07/11 02:24:34;;;;;;;9.23;5.37;;;;;;;;;;5071418;28;20126;-63
2023/07/11 02:27:00;;;;;;;9.38;5.53;;;;;;;;;;5071519;28;20023;-64
2023/07/11 02:29:25;;;;;;;8.50;4.90;;;;;;;;;;5071834;28;20055;-63
2023/07/11 02:31:50;;;;;;;8.27;4.80;;;;;;;;;;5071634;28;20025;-64
2023/07/11 02:34:15;;;;;;;8.87;5.57;;;;;;;;;;5070981;28;20024;-64
2023/07/11 02:36:40;;;;;;;8.95;5.32;;;;;;;;;;5070566;28;20391;-64
2023/07/11 02:39:06;;;;;;;9.07;6.07;;;;;;;;;;5071382;28;20387;-64
2023/07/11 02:41:31;;;;;;;10.50;5.27;;;;;;;;;;5071336;28;20020;-64
2023/07/11 02:43:56;;;;;;;7.67;5.23;;;;;;;;;;5067855;28;21302;-62
2023/07/11 02:46:22;;;;;;;9.35;5.05;;;;;;;;;;5065765;28;20052;-61
2023/07/11 02:48:47;;;;;;;8.83;5.07;;;;;;;;;;5057587;28;20024;-63
2023/07/11 02:51:12;;;;;;;8.93;5.40;;;;;;;;;;5051418;28;20052;-63
2023/07/11 02:53:37;;;;;;;8.82;5.35;;;;;;;;;;5059109;28;20123;-62
2023/07/11 02:56:02;;;;;;;9.38;5.18;;;;;;;;;;5070561;28;20020;-62
2023/07/11 02:58:28;;;;;;;8.95;5.20;;;;;;;;;;5054578;28;20503;-64
2023/07/11 03:00:54;;;;;;;9.87;5.57;;;;;;;;;;5051335;28;20394;-63
2023/07/11 03:03:20;;;;;;;9.70;5.30;;;;;;;;;;5051321;28;20025;-64
2023/07/11 03:05:46;;;;;;;9.98;5.50;;;;;;;;;;5070966;28;20480;-63
2023/07/11 03:08:11;;;;;;;9.13;5.03;;;;;;;;;;5070666;28;20113;-64
2023/07/11 03:10:37;;;;;;;8.80;4.97;;;;;;;;;;5063456;28;20109;-62
2023/07/11 03:13:02;;;;;;;8.73;5.53;;;;;;;;;;5070286;28;20024;-64
2023/07/11 03:15:27;;;;;;;8.47;5.10;;;;;;;;;;5058057;28;20040;-63
2023/07/11 03:17:52;;;;;;;9.25;5.13;;;;;;;;;;5051139;28;20455;-64
2023/07/11 03:20:17;;;;;;;9.55;4.95;;;;;;;;;;5070697;28;20025;-64
2023/07/11 03:22:43;;;;;;;10.90;5.13;;;;;;;;;;5063598;28;20017;-62
2023/07/11 03:25:08;;;;;;;9.40;4.97;;;;;;;;;;5050855;28;20021;-62
2023/07/11 03:27:33;;;;;;;7.50;4.57;;;;;;;;;;5064418;28;20038;-62
2023/07/11 03:29:58;;;;;;;7.38;4.85;;;;;;;;;;5069871;28;20017;-62
2023/07/11 03:32:23;;;;;;;8.13;4.78;;;;;;;;;;5070355;28;20132;-62
2023/07/11 03:34:48;;;;;;;10.40;5.35;;;;;;;;;;5072136;28;20050;-63
2023/07/11 03:37:13;;;;;;;7.95;5.13;;;;;;;;;;5072123;28;20024;-64
2023/07/11 03:39:39;;;;;;;9.35;5.22;;;;;;;;;;5071109;28;20047;-61
2023/07/11 03:42:04;;;;;;;8.75;5.03;;;;;;;;;;5071216;28;20024;-62
2023/07/11 03:44:29;;;;;;;9.77;5.07;;;;;;;;;;5070684;28;20025;-62
2023/07/11 03:46:54;;;;;;;8.30;4.67;;;;;;;;;;5072753;28;20023;-63
2023/07/11 03:49:19;;;;;;;8.10;5.03;;;;;;;;;;5072408;28;20107;-62
2023/07/11 03:51:44;;;;;;;8.53;5.13;;;;;;;;;;5071162;28;20027;-63
2023/07/11 03:54:10;;;;;;;7.47;4.75;;;;;;;;;;5069725;28;20480;-65
2023/07/11 03:56:35;;;;;;;10.38;5.28;;;;;;;;;;5070498;28;20043;-63
2023/07/11 03:59:00;;;;;;;8.43;4.95;;;;;;;;;;5067551;28;20029;-62
2023/07/11 04:01:25;;;;;;;11.13;5.60;;;;;;;;;;5068560;28;20036;-64
2023/07/11 04:03:50;;;;;;;9.60;4.82;;;;;;;;;;5069914;28;20070;-62
2023/07/11 04:06:15;;;;;;;8.33;4.80;;;;;;;;;;5070262;28;20021;-61
2023/07/11 04:08:41;;;;;;;9.00;5.13;;;;;;;;;;5070777;28;20450;-63
2023/07/11 04:11:06;;;;;;;7.50;4.90;;;;;;;;;;5070274;28;20024;-63
2023/07/11 04:13:31;;;;;;;8.27;4.70;;;;;;;;;;5064036;28;20039;-63
2023/07/11 04:15:56;;;;;;;7.40;4.50;;;;;;;;;;5065058;28;20013;-63
2023/07/11 04:18:21;;;;;;;7.67;4.40;;;;;;;;;;5071342;28;20016;-64
2023/07/11 04:20:47;;;;;;;9.77;4.70;;;;;;;;;;5074542;28;20027;-62
2023/07/11 04:23:13;;;;;;;7.28;4.82;;;;;;;;;;5073584;28;20422;-62
2023/07/11 04:25:38;;;;;;;7.32;4.13;;;;;;;;;;5073993;28;20020;-62
2023/07/11 04:28:04;;;;;;;6.37;4.07;;;;;;;;;;5072322;28;20073;-64
2023/07/11 04:30:29;;;;;;;8.98;4.38;;;;;;;;;;5073933;28;20035;-64
2023/07/11 04:32:55;;;;;;;7.60;4.23;;;;;;;;;;5070626;28;20025;-65
2023/07/11 04:35:20;;;;;;;7.72;4.60;;;;;;;;;;5073895;28;20074;-63
2023/07/11 04:37:45;;;;;;;7.63;4.63;;;;;;;;;;5072831;28;20074;-65
2023/07/11 04:40:11;;;;;;;7.13;4.32;;;;;;;;;;5073500;28;20021;-62
2023/07/11 04:42:36;;;;;;;8.10;4.85;;;;;;;;;;5073450;28;20472;-64
2023/07/11 04:45:01;;;;;;;7.10;3.85;;;;;;;;;;5073639;28;20009;-62
2023/07/11 04:47:27;;;;;;;8.40;4.80;;;;;;;;;;5073982;28;20020;-64
2023/07/11 04:49:52;;;;;;;7.93;4.40;;;;;;;;;;5070591;28;20079;-64
2023/07/11 04:52:17;;;;;;;7.50;4.43;;;;;;;;;;5068692;28;20455;-63
2023/07/11 04:54:44;;;;;;;7.53;4.00;;;;;;;;;;5073307;28;20523;-63
2023/07/11 04:57:09;;;;;;;;;;;;;;;;;;5072252;28;20403;-63
2023/07/11 04:59:34;;;;;;;7.75;4.28;;;;;;;;;;5071865;28;19912;-64
2023/07/11 05:01:59;;;;;;;8.43;4.45;;;;;;;;;;5073272;28;20074;-64
2023/07/11 05:04:24;;;;;;;9.18;5.00;;;;;;;;;;5060035;28;20037;-62
2023/07/11 05:06:49;;;;;;;8.70;4.40;;;;;;;;;;5065418;28;20394;-62
2023/07/11 05:09:15;;;;;;;7.45;4.10;;;;;;;;;;5053370;28;20028;-63
2023/07/11 05:11:40;;;;;;;10.45;4.47;;;;;;;;;;5058154;28;20024;-64
2023/07/11 05:14:05;;;;;;;7.10;4.13;;;;;;;;;;5063453;28;20025;-63
2023/07/11 05:16:31;;;;;;;9.40;3.83;;;;;;;;;;5064551;28;20480;-64
2023/07/11 05:18:57;;;;;;;8.57;4.07;;;;;;;;;;5062519;28;20496;-64
2023/07/11 05:21:22;;;;;;;8.35;3.90;;;;;;;;;;5053187;28;20063;-63
2023/07/11 05:23:48;;;;;;;6.90;4.28;;;;;;;;;;5054269;28;20043;-63
2023/07/11 05:26:13;;;;;;;9.18;4.40;;;;;;;;;;5057562;28;20361;-62
2023/07/11 05:28:38;;;;;;;;;;;;;;;;;;5053142;28;20025;-61
2023/07/11 05:31:04;;;;;;;9.27;4.25;;;;;;;;;;5063001;28;19908;-64
2023/07/11 05:33:29;;;;;;;;;;;;;;;;;;5058944;28;20108;-63
2023/07/11 05:36:23;;;;;;;9.20;4.57;;;;;;;;;;5049212;28;20008;-62
2023/07/11 05:38:48;;;;;;;6.63;3.78;;;;;;;;;;5057830;28;20020;-61
2023/07/11 05:41:13;;;;;;;8.32;3.72;;;;;;;;;;5059503;28;20411;-64
2023/07/11 05:43:38;;;;;;;7.93;3.90;;;;;;;;;;5062080;28;20048;-61
2023/07/11 05:46:04;;;;;;;9.52;4.28;;;;;;;;;;5060465;28;20470;-62
2023/07/11 05:48:29;;;;;;;7.75;3.90;;;;;;;;;;5058372;28;20035;-63
2023/07/11 05:51:02;;;;;;;7.95;3.75;;;;;;;;;;5060200;28;20112;-63
2023/07/11 05:53:28;;;;;;;7.65;3.75;;;;;;;;;;5060878;28;20033;-61
2023/07/11 05:55:54;;;;;;;9.02;4.25;;;;;;;;;;5063769;28;20086;-63
2023/07/11 05:58:19;;;;;;;9.37;4.00;;;;;;;;;;5062946;28;20116;-64
2023/07/11 06:00:44;;;;;;;6.43;3.80;;;;;;;;;;5068290;28;20024;-62
2023/07/11 06:03:09;;;;;;;;;;;;;;;;;;5069268;28;20028;-63
2023/07/11 06:05:34;;;;;;;8.68;3.70;;;;;;;;;;5066668;28;19913;-62
2023/07/11 06:08:00;;;;;;;;;;;;;;;;;;5063154;28;20028;-61
2023/07/11 06:10:25;;;;;;;8.60;3.85;;;;;;;;;;5056321;28;19927;-62
2023/07/11 06:12:50;;;;;;;;;;;;;;;;;;5071444;28;20023;-63
2023/07/11 06:15:15;;;;;;;8.70;4.45;;;;;;;;;;5072427;28;20282;-63
2023/07/11 06:17:40;;;;;;;;;;;;;;;;;;5067440;28;20078;-62
2023/07/11 06:20:09;;;;;;;6.95;3.47;;;;;;;;;;5062158;28;19904;-63
2023/07/11 06:22:34;;;;;;;6.90;3.42;;;;;;;;;;5051336;28;20533;-64
2023/07/11 06:24:59;;;;;;;6.55;3.60;;;;;;;;;;5064125;28;20028;-64
2023/07/11 06:27:24;;;;;;;7.65;3.80;;;;;;;;;;5061546;28;20376;-63
2023/07/11 06:29:49;;;;;;;6.90;3.40;;;;;;;;;;5063158;28;20412;-61
2023/07/11 06:32:15;;;;;;;8.47;3.27;;;;;;;;;;5079837;28;20073;-62
2023/07/11 06:34:40;;;;;;;;;;;;;;;;;;5074293;28;20472;-63
2023/07/11 06:37:05;;;;;;;6.13;3.40;;;;;;;;;;5070414;28;19909;-64
2023/07/11 06:39:30;;;;;;;7.50;3.30;;;;;;;;;;5071304;28;20063;-61
2023/07/11 06:41:55;;;;;;;;;;;;;;;;;;5067812;28;20368;-63
2023/07/11 06:44:21;;;;;;;6.53;3.00;;;;;;;;;;5067218;28;19909;-63
2023/07/11 06:46:46;;;;;;;;;;;;;;;;;;5050940;28;20366;-59
2023/07/11 06:49:11;;;;;;;8.25;3.30;;;;;;;;;;5066641;28;19954;-62
2023/07/11 06:51:36;;;;;;;7.20;3.13;;;;;;;;;;5067391;28;20031;-61
2023/07/11 06:54:02;;;;;;;;;;;;;;;;;;5065256;28;20024;-62
2023/07/11 06:56:28;;;;;;;6.53;2.67;;;;;;;;;;5071818;28;19904;-62
2023/07/11 06:58:53;;;;;;;7.40;2.80;;;;;;;;;;5070430;28;20025;-61
2023/07/11 07:01:22;;;;;;;5.95;3.05;;;;;;;;;;5057532;28;20539;-62
2023/07/11 07:03:47;;;;;;;5.95;2.90;;;;;;;;;;5070004;28;20480;-62
2023/07/11 07:06:13;;;;;;;7.37;3.10;;;;;;;;;;5065352;28;20032;-59
2023/07/11 07:08:38;;;;;;;;;;;;;;;;;;5052441;28;20064;-63
2023/07/11 07:11:03;;;;;;;6.32;2.70;;;;;;;;;;5084241;28;19963;-61
2023/07/11 07:13:29;;;;;;;;;;;;;;;;;;5062764;28;20025;-61
2023/07/11 07:15:56;;;;;;;5.18;2.50;;;;;;;;;;5063377;28;19912;-62
2023/07/11 07:18:22;;;;;;;6.93;2.97;;;;;;;;;;5068089;28;20477;-61
2023/07/11 07:20:47;;;;;;;5.93;2.53;;;;;;;;;;5069348;28;20100;-63
2023/07/11 07:23:13;;;;;;;5.82;2.40;;;;;;;;;;5070565;28;20108;-63
2023/07/11 07:25:39;;;;;;;5.80;2.60;;;;;;;;;;5071086;28;20023;-63
2023/07/11 07:28:04;;;;;;;6.97;2.55;;;;;;;;;;5061096;28;20053;-60
2023/07/11 07:30:29;;;;;;;;;;;;;;;;;;5068990;28;20035;-62
2023/07/11 07:32:54;;;;;;;6.72;2.30;;;;;;;;;;5066898;28;19920;-61
2023/07/11 07:35:19;;;;;;;4.13;1.80;;;;;;;;;;5070774;28;20486;-62
2023/07/11 07:37:44;;;;;;;;;;;;;;;;;;5071434;28;20016;-61
2023/07/11 07:40:10;;;;;;;6.68;1.88;;;;;;;;;;5071057;28;19905;-60
2023/07/11 07:42:35;;;;;;;5.93;1.77;;;;;;;;;;5068836;28;20123;-62
2023/07/11 07:45:00;;;;;;;5.22;1.75;;;;;;;;;;5070649;28;20083;-61
2023/07/11 07:47:25;;;;;;;4.35;1.50;;;;;;;;;;5070846;28;20051;-60
2023/07/11 07:49:50;;;;;;;5.30;1.70;;;;;;;;;;5067888;28;20028;-62
2023/07/11 07:52:15;;;;;;;4.63;1.70;;;;;;;;;;5068139;28;20048;-61
2023/07/11 07:54:40;;;;;;;;;;;;;;;;;;5070159;28;20028;-60
2023/07/11 07:57:06;;;;;;;5.18;1.75;;;;;;;;;;5070804;28;19958;-62
2023/07/11 07:59:31;;;;;;;;;;;;;;;;;;5071236;28;20020;-63
2023/07/11 08:01:56;;;;;;;4.40;1.80;;;;;;;;;;5070449;28;20372;-62
2023/07/11 08:04:21;;;;;;;5.25;1.40;;;;;;;;;;5064625;28;20019;-63
2023/07/11 08:06:47;;;;;;;3.97;1.60;;;;;;;;;;5070528;28;20017;-61
2023/07/11 08:09:12;;;;;;;5.27;1.83;;;;;;;;;;5067295;28;20016;-63
2023/07/11 08:11:37;;;;;;;4.17;1.60;;;;;;;;;;5068267;28;20027;-61
2023/07/11 08:14:02;;;;;;;4.50;1.65;;;;;;;;;;5049675;28;20099;-63
2023/07/11 08:16:28;;;;;;;6.45;1.75;;;;;;;;;;5050417;28;20025;-61
2023/07/11 08:18:53;;;;;;;5.88;1.77;;;;;;;;;;5050305;28;20100;-62
2023/07/11 08:21:18;;;;;;;5.80;1.53;;;;;;;;;;5050584;28;20075;-61
2023/07/11 08:23:43;;;;;;;5.38;1.73;;;;;;;;;;5068788;28;20021;-61
2023/07/11 08:26:10;;;;;;;3.60;1.45;;;;;;;;;;5067856;28;20111;-60
2023/07/11 08:28:35;;;;;;;4.43;1.60;;;;;;;;;;5058423;28;20028;-59
2023/07/11 08:31:02;;;;;;;5.47;1.90;;;;;;;;;;5051436;28;20021;-63
2023/07/11 08:33:27;;;;;;;8.05;1.65;;;;;;;;;;5051558;28;20568;-60
2023/07/11 08:35:56;;;;;;;6.85;1.90;;;;;;;;;;5050309;28;20099;-61
2023/07/11 08:38:21;;;;;;;6.28;1.80;;;;;;;;;;5050483;28;20017;-62
2023/07/11 08:40:46;;;;;;;5.25;1.98;;;;;;;;;;5053607;28;20082;-63
2023/07/11 08:43:11;;;;;;;;;;;;;;;;;;5059691;28;20107;-62
2023/07/11 08:45:46;;;;;;;6.28;2.00;;;;;;;;;;5069841;28;19958;-63
2023/07/11 08:48:18;;;;;;;5.80;1.90;;;;;;;;;;5070211;28;20017;-61
2023/07/11 08:50:53;;;;;;;4.97;1.98;;;;;;;;;;5070071;28;20020;-62
2023/07/11 08:53:20;;;;;;;4.40;1.63;;;;;;;;;;5067744;28;20126;-62
2023/07/11 08:55:51;;;;;;;5.50;1.70;;;;;;;;;;5052717;28;20024;-62
2023/07/11 08:58:20;;;;;;;6.15;1.90;;;;;;;;;;5070056;28;20064;-60
2023/07/11 09:00:47;;;;;;;5.15;1.70;;;;;;;;;;5070782;28;20040;-63
2023/07/11 09:03:12;;;;;;;6.85;2.15;;;;;;;;;;5073201;28;20752;-62
2023/07/11 09:05:37;;;;;;;6.90;1.93;;;;;;;;;;5073660;28;20023;-61
2023/07/11 09:08:02;;;;;;;6.85;2.00;;;;;;;;;;5073662;28;20031;-62
2023/07/11 09:10:27;;;;;;;;;;;;;;;;;;5072777;28;20016;-60
2023/07/11 09:12:57;;;;;;;4.68;1.80;;;;;;;;;;5069219;28;19916;-60
2023/07/11 09:15:46;;;;;;;4.45;1.55;;;;;;;;;;5064447;28;20025;-61
2023/07/11 09:18:20;;;;;;;4.95;1.60;;;;;;;;;;5069931;28;20048;-61
2023/07/11 09:20:45;;;;;;;6.95;2.08;;;;;;;;;;5073354;28;20021;-63
2023/07/11 09:23:13;;;;;;;;;;;;;;;;;;5070813;28;20029;-62
2023/07/11 09:25:39;;;;;;;4.03;1.60;;;;;;;;;;5053159;28;20338;-61
2023/07/11 09:28:26;;;;;;;4.93;1.83;;;;;;;;;;5053473;28;20021;-62
2023/07/11 09:30:54;;;;;;;5.72;1.80;;;;;;;;;;5070958;28;20032;-61
2023/07/11 09:33:22;;;;;;;4.47;1.70;;;;;;;;;;5072186;28;20025;-62
2023/07/11 09:35:47;;;;;;;4.25;1.80;;;;;;;;;;5072898;28;20021;-62
2023/07/11 09:38:13;;;;;;;;;;;;;;;;;;5073385;28;20382;-60
2023/07/11 09:40:46;;;;;;;5.75;1.92;;;;;;;;;;5073119;28;19905;-62
2023/07/11 09:43:12;;;;;;;4.57;1.73;;;;;;;;;;5072140;28;20431;-63
2023/07/11 09:45:37;;;;;;;;;;;;;;;;;;5073112;28;20016;-60
2023/07/11 09:48:05;;;;;;;4.50;1.70;;;;;;;;;;5072724;28;20291;-62
2023/07/11 09:50:36;;;;;;;5.90;1.90;;;;;;;;;;5072724;28;20073;-62
2023/07/11 09:53:02;;;;;;;4.38;1.60;;;;;;;;;;5072084;28;20044;-62
2023/07/11 09:55:34;;;;;;;6.18;1.80;;;;;;;;;;5072536;28;20445;-60
2023/07/11 09:57:59;;;;;;;4.90;1.70;;;;;;;;;;5070586;28;20565;-61
2023/07/11 10:00:24;;;;;;;;;;;;;;;;;;5064824;28;20025;-61
2023/07/11 10:02:49;;;;;;;6.25;1.92;;;;;;;;;;5070422;28;19908;-61
2023/07/11 10:05:15;;;;;;;;;;;;;;;;;;5072862;28;20028;-61
2023/07/11 10:07:40;;;;;;;4.32;1.65;;;;;;;;;;5072351;28;19911;-62
2023/07/11 10:10:05;;;;;;;;;;;;;;;;;;5073251;28;20426;-61
2023/07/11 10:12:31;;;;;;;4.03;1.45;;;;;;;;;;5071842;28;19904;-61
2023/07/11 10:14:56;;;;;;;;;;;;;;;;;;5070720;28;20490;-60
2023/07/11 10:17:35;;;;;;;4.95;1.58;;;;;;;;;;5067641;28;19908;-62
2023/07/11 10:20:02;;;;;;;4.88;1.80;;;;;;;;;;5071788;28;20048;-62
2023/07/11 10:22:28;;;;;;;4.75;1.90;;;;;;;;;;5071688;28;20035;-62
2023/07/11 10:24:53;;;;;;;;;;;;;;;;;;5071217;28;20509;-62
2023/07/11 10:27:23;;;;;;;5.18;2.08;;;;;;;;;;5069312;28;19904;-62
2023/07/11 10:29:53;;;;;;;3.97;1.63;;;;;;;;;;5051790;28;20412;-62
2023/07/11 10:32:38;;;;;;;6.63;1.83;;;;;;;;;;5066748;28;20031;-62
2023/07/11 10:35:08;;;;;;;4.78;1.70;;;;;;;;;;5061055;28;20441;-62
2023/07/11 10:37:39;;;;;;;7.45;2.33;;;;;;;;;;5059492;28;20047;-60
2023/07/11 10:40:05;;;;;;;6.47;2.00;;;;;;;;;;5072046;28;20040;-62
2023/07/11 10:42:30;;;;;;;;;;;;;;;;;;5073035;28;20044;-62
2023/07/11 10:45:02;;;;;;;4.93;1.70;;;;;;;;;;5074086;28;19911;-60
2023/07/11 10:47:32;;;;;;;4.70;2.00;;;;;;;;;;5066457;28;20427;-63
2023/07/11 10:49:57;;;;;;;4.55;1.90;;;;;;;;;;5071584;28;20100;-62
2023/07/11 10:52:22;;;;;;;;;;;;;;;;;;5071372;28;20103;-61
2023/07/11 10:54:52;;;;;;;5.85;1.90;;;;;;;;;;5071626;28;20371;-62
2023/07/11 10:57:40;;;;;;;4.90;2.00;;;;;;;;;;5071550;28;20479;-60
2023/07/11 11:00:16;;;;;;;5.55;2.20;;;;;;;;;;5048404;28;20037;-61
2023/07/11 11:02:56;;;;;;;5.30;1.83;;;;;;;;;;5066810;28;20514;-61
2023/07/11 11:05:40;;;;;;;5.32;1.80;;;;;;;;;;5071725;28;20027;-62
2023/07/11 11:08:09;;;;;;;5.07;1.77;;;;;;;;;;5051692;28;20032;-61
2023/07/11 11:10:35;;;;;;;4.85;2.13;;;;;;;;;;5056951;28;20037;-61
2023/07/11 11:13:00;;;;;;;;;;;;;;;;;;5073174;28;20028;-61
2023/07/11 11:15:33;;;;;;;5.47;2.20;;;;;;;;;;5069866;28;19990;-61
2023/07/11 11:18:17;;;;;;;4.93;2.03;;;;;;;;;;5065021;28;20037;-61
2023/07/11 11:20:58;;;;;;;5.60;2.05;;;;;;;;;;5069142;28;20027;-63
2023/07/11 11:23:23;;;;;;;4.78;2.20;;;;;;;;;;5063105;28;20070;-62
2023/07/11 11:26:03;;;;;;;5.32;2.30;;;;;;;;;;5068787;28;20016;-62
2023/07/11 11:28:36;;;;;;;4.70;2.17;;;;;;;;;;5071138;28;20024;-62
2023/07/11 11:31:08;;;;;;;6.32;2.53;;;;;;;;;;5071062;28;20039;-59
2023/07/11 11:33:33;;;;;;;5.78;2.42;;;;;;;;;;5068304;28;20035;-60
2023/07/11 11:36:04;;;;;;;4.97;2.22;;;;;;;;;;5066840;28;20476;-62
2023/07/11 11:38:47;;;;;;;6.07;2.40;;;;;;;;;;5084723;28;20388;-63
2023/07/11 11:41:14;;;;;;;4.72;2.13;;;;;;;;;;5060276;28;20024;-63
2023/07/11 11:43:40;;;;;;;4.93;2.20;;;;;;;;;;5070598;28;20503;-62
2023/07/11 11:46:06;;;;;;;4.97;2.30;;;;;;;;;;5071479;28;20029;-62
2023/07/11 11:48:31;;;;;;;;;;;;;;;;;;5082612;28;20133;-63
2023/07/11 11:50:58;;;;;;;4.82;2.50;;;;;;;;;;5070594;28;19904;-62
2023/07/11 11:53:31;;;;;;;5.18;2.30;;;;;;;;;;5067674;28;20040;-61
2023/07/11 11:55:59;;;;;;;7.70;2.67;;;;;;;;;;5058010;28;20032;-61
2023/07/11 11:58:25;;;;;;;5.60;2.50;;;;;;;;;;5068168;28;20073;-62
2023/07/11 12:00:52;;;;;;;5.90;2.70;;;;;;;;;;5061428;28;20021;-63
2023/07/11 12:03:18;;;;;;;6.35;3.00;;;;;;;;;;5062095;28;20047;-59
2023/07/11 12:05:47;;;;;;;6.97;2.80;;;;;;;;;;5070070;28;20017;-61
2023/07/11 12:08:24;;;;;;;6.18;2.75;;;;;;;;;;5061598;28;20016;-61
2023/07/11 12:11:08;;;;;;;5.47;2.53;;;;;;;;;;5064316;28;20081;-61
2023/07/11 12:13:34;;;;;;;9.00;2.85;;;;;;;;;;5067866;28;20128;-61
2023/07/11 12:16:07;;;;;;;5.38;2.60;;;;;;;;;;5062765;28;20020;-61
2023/07/11 12:18:45;;;;;;;5.43;2.78;;;;;;;;;;5069864;28;20024;-63
2023/07/11 12:21:13;;;;;;;5.25;2.65;;;;;;;;;;5060664;28;20029;-60
2023/07/11 12:23:46;;;;;;;5.75;2.83;;;;;;;;;;5075277;28;20577;-63
2023/07/11 12:26:22;;;;;;;6.03;2.72;;;;;;;;;;5066680;28;20016;-61
2023/07/11 12:28:48;;;;;;;6.90;2.72;;;;;;;;;;5064429;28;20438;-63
2023/07/11 12:31:21;;;;;;;6.60;3.13;;;;;;;;;;5067925;28;20021;-60
2023/07/11 12:33:54;;;;;;;6.68;3.20;;;;;;;;;;5071940;28;20108;-61
2023/07/11 12:36:44;;;;;;;6.20;3.17;;;;;;;;;;5074895;28;20024;-61
2023/07/11 12:39:14;;;;;;;8.23;3.53;;;;;;;;;;5085417;28;20039;-61
2023/07/11 12:41:48;;;;;;;5.25;2.95;;;;;;;;;;5067138;28;20031;-62
2023/07/11 12:44:14;;;;;;;6.32;3.50;;;;;;;;;;5065099;28;20032;-63
2023/07/11 12:46:42;;;;;;;5.15;3.17;;;;;;;;;;5061424;28;20024;-64
2023/07/11 12:49:22;;;;;;;7.32;3.70;;;;;;;;;;5066784;28;20499;-61
2023/07/11 12:51:47;;;;;;;7.75;4.28;;;;;;;;;;5072755;28;20480;-61
2023/07/11 12:54:14;;;;;;;7.90;4.13;;;;;;;;;;5072503;28;20035;-62
2023/07/11 12:56:42;;;;;;;7.88;4.22;;;;;;;;;;5074897;28;20059;-62
2023/07/11 12:59:31;;;;;;;9.45;4.13;;;;;;;;;;5073714;28;20499;-63
2023/07/11 13:01:57;;;;;;;7.20;4.30;;;;;;;;;;5063989;28;20032;-62
2023/07/11 13:04:25;;;;;;;6.55;3.88;;;;;;;;;;5068528;28;20016;-62
2023/07/11 13:06:54;;;;;;;7.07;3.90;;;;;;;;;;5073599;28;20024;-62
2023/07/11 13:09:19;;;;;;;9.73;4.25;;;;;;;;;;5073552;28;20040;-62
2023/07/11 13:11:45;;;;;;;9.30;5.67;;;;;;;;;;5073576;28;20044;-61
2023/07/11 13:14:10;;;;;;;10.95;7.00;;;;;;;;;;5065426;28;20021;-61
2023/07/11 13:16:38;;;;;;;10.93;6.20;;;;;;;;;;5072574;28;20020;-62
2023/07/11 13:19:03;;;;;;;9.52;6.47;;;;;;;;;;5073399;28;20028;-62
2023/07/11 13:21:28;;;;;;;9.30;6.57;;;;;;;;;;5069601;28;20008;-62
2023/07/11 13:23:55;;;;;;;10.02;6.85;;;;;;;;;;5064521;28;21101;-65
2023/07/11 13:26:26;;;;;;;11.85;6.55;;;;;;;;;;5072981;28;20020;-61
2023/07/11 13:29:21;;;;;;;10.57;7.38;;;;;;;;;;5073338;28;20017;-62
2023/07/11 13:31:47;;;;;;;10.98;7.22;;;;;;;;;;5072238;28;20032;-61
2023/07/11 13:34:12;;;;;;;10.13;7.05;;;;;;;;;;5076500;28;20082;-61
2023/07/11 13:36:39;;;;;;;11.83;7.17;;;;;;;;;;5077822;28;20052;-62
2023/07/11 13:39:05;;;;;;;11.27;7.40;;;;;;;;;;5075940;28;20434;-60
2023/07/11 13:41:39;;;;;;;11.20;7.00;;;;;;;;;;5072632;28;20026;-61
2023/07/11 13:44:25;;;;;;;12.02;6.60;;;;;;;;;;5072264;28;20099;-60
2023/07/11 13:46:50;;;;;;;9.85;6.72;;;;;;;;;;5071017;28;20466;-61
2023/07/11 13:49:21;;;;;;;9.17;6.50;;;;;;;;;;5073435;28;20112;-60
2023/07/11 13:51:46;;;;;;;12.30;7.30;;;;;;;;;;5079174;28;20115;-63
2023/07/11 13:54:21;;;;;;;10.55;6.82;;;;;;;;;;5073288;28;20200;-62
2023/07/11 13:56:46;;;;;;;9.23;6.75;;;;;;;;;;5067596;28;20984;-60
2023/07/11 13:59:11;;;;;;;10.40;6.75;;;;;;;;;;5067917;28;20024;-63
2023/07/11 14:01:37;;;;;;;11.57;6.22;;;;;;;;;;5062395;28;20539;-62
2023/07/11 14:04:05;;;;;;;10.00;6.43;;;;;;;;;;5069178;28;20028;-61
2023/07/11 14:06:31;;;;;;;10.48;6.35;;;;;;;;;;5081038;28;20028;-60
2023/07/11 14:08:56;;;;;;;9.38;6.55;;;;;;;;;;5062807;28;20021;-60
2023/07/11 14:11:25;;;;;;;10.27;6.80;;;;;;;;;;5064267;28;20048;-60
2023/07/11 14:13:51;;;;;;;9.93;6.90;;;;;;;;;;5067585;28;20036;-63
2023/07/11 14:16:16;;;;;;;11.02;6.60;;;;;;;;;;5061030;28;20106;-62
2023/07/11 14:18:41;;;;;;;8.47;6.17;;;;;;;;;;5065314;28;20012;-62
2023/07/11 14:21:09;;;;;;;9.57;5.93;;;;;;;;;;5062387;28;20013;-62
2023/07/11 14:23:34;;;;;;;8.82;6.30;;;;;;;;;;5060665;28;20025;-61
2023/07/11 14:26:01;;;;;;;10.52;6.72;;;;;;;;;;5061594;28;20165;-63
2023/07/11 14:28:27;;;;;;;8.90;6.22;;;;;;;;;;5060070;28;20033;-61
2023/07/11 14:30:54;;;;;;;9.85;6.45;;;;;;;;;;5056010;28;20028;-62
2023/07/11 14:33:20;;;;;;;10.07;5.93;;;;;;;;;;5065772;28;20033;-61
2023/07/11 14:35:46;;;;;;;9.25;6.45;;;;;;;;;;5066917;28;20107;-63
2023/07/11 14:38:19;;;;;;;9.75;6.57;;;;;;;;;;5074915;28;20028;-63
2023/07/11 14:40:44;;;;;;;9.35;6.13;;;;;;;;;;5074482;28;20434;-63
2023/07/11 14:43:13;;;;;;;11.50;7.38;;;;;;;;;;5073242;28;20024;-62
2023/07/11 14:45:39;;;;;;;9.98;6.63;;;;;;;;;;5073178;28;20425;-62
2023/07/11 14:48:26;;;;;;;10.38;6.32;;;;;;;;;;5074803;28;20097;-62
2023/07/11 14:50:55;;;;;;;10.05;6.43;;;;;;;;;;5073638;28;20376;-62